createdAt,value
2023-02-08T00:45:24.311Z,4.40
2023-02-08T00:48:09.808Z,5.00
2023-02-08T00:51:06.059Z,4.90
2023-02-08T00:53:51.294Z,4.32
2023-02-08T00:56:37.203Z,4.95
2023-02-08T00:59:23.223Z,4.33
2023-02-08T01:48:17.719Z,3.80
2023-02-08T01:51:21.693Z,4.22
2023-02-08T01:54:10.366Z,3.90
2023-02-08T01:56:55.602Z,4.50
2023-02-08T01:59:53.040Z,4.00
2023-02-08T02:45:32.009Z,4.10
2023-02-08T02:48:25.735Z,4.05
2023-02-08T02:51:29.582Z,4.43
2023-02-08T02:54:27.546Z,4.30
2023-02-08T02:57:19.339Z,3.95
2023-02-08T03:46:14.830Z,3.80
2023-02-08T03:49:08.793Z,3.88
2023-02-08T03:51:58.375Z,3.70
2023-02-08T03:54:53.233Z,4.22
2023-02-08T03:57:48.876Z,3.80
2023-02-08T04:46:28.629Z,3.97
2023-02-08T04:49:13.914Z,3.70
2023-02-08T04:51:59.064Z,3.85
2023-02-08T04:55:07.883Z,3.90
2023-02-08T04:57:54.562Z,3.80
2023-02-08T05:46:38.610Z,3.65
2023-02-08T05:49:25.141Z,3.80
2023-02-08T05:52:10.864Z,3.45
2023-02-08T05:54:56.093Z,3.72
2023-02-08T05:57:41.694Z,4.10
2023-02-08T06:00:27.343Z,3.40
2023-02-08T06:03:12.794Z,3.80
2023-02-08T06:06:01.371Z,3.70
2023-02-08T06:08:47.125Z,3.80
2023-02-08T06:11:32.350Z,4.20
2023-02-08T06:14:17.851Z,3.63
2023-02-08T06:17:03.155Z,3.60
2023-02-08T06:19:48.585Z,3.75
2023-02-08T06:22:36.908Z,3.60
2023-02-08T06:25:22.109Z,3.50
2023-02-08T06:28:10.677Z,3.65
2023-02-08T06:30:56.517Z,3.78
2023-02-08T06:33:41.999Z,3.67
2023-02-08T06:36:27.672Z,3.58
2023-02-08T06:39:13.171Z,3.60
2023-02-08T06:41:58.711Z,3.50
2023-02-08T06:44:54.356Z,3.50
2023-02-08T06:47:41.435Z,4.22
2023-02-08T06:50:26.865Z,3.90
2023-02-08T06:53:12.167Z,3.57
2023-02-08T06:55:57.467Z,3.88
2023-02-08T06:58:42.874Z,3.95
2023-02-08T07:01:28.395Z,3.38
2023-02-08T07:04:13.451Z,3.85
2023-02-08T07:06:58.884Z,3.17
2023-02-08T07:09:45.227Z,3.40
2023-02-08T07:12:33.717Z,3.67
2023-02-08T07:15:19.298Z,4.40
2023-02-08T07:18:04.656Z,3.72
2023-02-08T07:20:50.348Z,3.57
2023-02-08T07:23:35.928Z,3.28
2023-02-08T07:26:21.628Z,3.90
2023-02-08T07:29:07.270Z,3.88
2023-02-08T07:31:52.547Z,3.65
2023-02-08T07:34:38.372Z,3.40
2023-02-08T07:37:23.725Z,3.58
2023-02-08T07:40:09.884Z,3.38
2023-02-08T07:42:55.347Z,4.07
2023-02-08T07:45:52.559Z,7.93
2023-02-08T07:48:40.218Z,6.20
2023-02-08T07:51:26.285Z,4.80
2023-02-08T07:54:11.908Z,4.68
2023-02-08T07:56:57.327Z,4.05
2023-02-08T07:59:42.622Z,4.32
2023-02-08T08:02:27.938Z,4.13
2023-02-08T08:05:13.363Z,4.05
2023-02-08T08:07:58.654Z,4.25
2023-02-08T08:10:45.049Z,4.63
2023-02-08T08:13:30.463Z,4.22
2023-02-08T08:16:16.012Z,3.83
2023-02-08T08:19:01.161Z,4.18
2023-02-08T08:21:46.356Z,3.95
2023-02-08T08:24:35.523Z,4.50
2023-02-08T08:27:21.112Z,4.25
2023-02-08T08:30:12.641Z,4.90
2023-02-08T08:32:58.217Z,5.43
2023-02-08T08:35:44.467Z,5.40
2023-02-08T08:38:29.691Z,5.93
2023-02-08T08:41:21.163Z,5.45
2023-02-08T08:44:06.922Z,5.53
2023-02-08T08:46:59.386Z,5.50
2023-02-08T08:49:44.548Z,5.45
2023-02-08T08:52:30.149Z,5.43
2023-02-08T08:55:15.546Z,5.97
2023-02-08T08:58:01.028Z,5.93
2023-02-08T09:00:46.620Z,15.90
2023-02-08T09:03:32.130Z,14.25
2023-02-08T09:06:18.057Z,12.23
2023-02-08T09:09:04.292Z,12.23
2023-02-08T09:11:50.133Z,11.10
2023-02-08T09:14:35.328Z,11.20
2023-02-08T09:17:21.019Z,10.45
2023-02-08T09:20:06.829Z,10.10
2023-02-08T09:22:53.641Z,9.75
2023-02-08T09:25:39.136Z,9.37
2023-02-08T09:28:24.539Z,9.38
2023-02-08T09:31:15.968Z,9.10
2023-02-08T09:34:01.995Z,9.32
2023-02-08T09:36:47.431Z,8.95
2023-02-08T09:39:32.840Z,8.30
2023-02-08T09:42:37.300Z,8.68
2023-02-08T09:45:51.058Z,9.15
2023-02-08T09:48:45.665Z,8.93
2023-02-08T09:51:37.782Z,8.90
2023-02-08T09:54:30.255Z,9.43
2023-02-08T09:57:24.255Z,9.38
2023-02-08T10:00:21.636Z,8.95
2023-02-08T10:03:27.163Z,8.88
2023-02-08T10:06:18.786Z,9.10
2023-02-08T10:09:07.022Z,8.70
2023-02-08T10:12:23.120Z,8.80
2023-02-08T10:15:30.468Z,8.23
2023-02-08T10:18:25.470Z,7.88
2023-02-08T10:21:16.750Z,8.32
2023-02-08T10:24:29.562Z,8.63
2023-02-08T10:27:23.798Z,7.80
2023-02-08T10:30:24.975Z,8.18
2023-02-08T10:33:46.386Z,8.35
2023-02-08T10:36:43.713Z,7.95
2023-02-08T10:39:35.516Z,7.60
2023-02-08T10:42:24.681Z,7.97
2023-02-08T10:45:25.034Z,8.25
2023-02-08T10:48:36.768Z,7.55
2023-02-08T10:51:22.115Z,7.68
2023-02-08T10:54:13.293Z,7.30
2023-02-08T10:57:04.375Z,7.80
2023-02-08T11:00:04.195Z,7.85
2023-02-08T11:02:52.715Z,8.38
2023-02-08T11:05:38.928Z,7.78
2023-02-08T11:08:28.015Z,7.77
2023-02-08T11:11:13.833Z,7.90
2023-02-08T11:14:17.683Z,7.53
2023-02-08T11:17:03.289Z,7.82
2023-02-08T11:19:50.739Z,7.45
2023-02-08T11:22:36.948Z,7.70
2023-02-08T11:25:39.865Z,7.90
2023-02-08T11:28:29.480Z,8.13
2023-02-08T11:31:21.062Z,7.43
2023-02-08T11:34:11.550Z,8.23
2023-02-08T11:36:59.408Z,7.70
2023-02-08T11:39:51.630Z,8.65
2023-02-08T11:42:44.214Z,8.38
2023-02-08T11:45:35.814Z,8.40
2023-02-08T11:48:54.082Z,8.88
2023-02-08T11:51:40.097Z,8.50
2023-02-08T11:54:34.924Z,8.20
2023-02-08T11:57:27.905Z,8.70
2023-02-08T12:00:23.078Z,7.85
2023-02-08T12:03:19.806Z,8.32
2023-02-08T12:06:33.150Z,8.60
2023-02-08T12:09:44.908Z,7.45
2023-02-08T12:12:39.721Z,7.88
2023-02-08T12:15:34.221Z,7.68
2023-02-08T12:18:59.410Z,7.75
2023-02-08T12:21:46.984Z,7.57
2023-02-08T12:24:50.814Z,7.80
2023-02-08T12:27:48.701Z,7.78
2023-02-08T12:30:43.809Z,7.38
2023-02-08T12:33:44.846Z,7.45
2023-02-08T12:37:26.003Z,7.67
2023-02-08T12:40:52.964Z,6.68
2023-02-08T12:43:50.587Z,7.00
2023-02-08T12:46:58.940Z,6.80
2023-02-08T12:50:01.635Z,7.55
2023-02-08T12:52:52.922Z,6.50
2023-02-08T12:55:41.943Z,7.15
2023-02-08T12:58:48.083Z,6.93
2023-02-08T13:01:51.506Z,6.70
2023-02-08T13:04:41.193Z,8.07
2023-02-08T13:07:34.321Z,7.60
2023-02-08T13:10:29.565Z,7.03
2023-02-08T13:13:24.135Z,7.20
2023-02-08T13:16:14.481Z,6.82
2023-02-08T13:19:23.855Z,7.10
2023-02-08T13:22:14.435Z,6.50
2023-02-08T13:25:07.517Z,6.95
2023-02-08T13:27:54.089Z,17.58
2023-02-08T13:30:41.224Z,19.10
2023-02-08T13:33:55.631Z,17.40
2023-02-08T13:36:55.790Z,16.07
2023-02-08T13:39:44.692Z,15.88
2023-02-08T13:43:10.735Z,14.27
2023-02-08T13:45:59.926Z,14.27
2023-02-08T13:48:53.421Z,14.10
2023-02-08T13:51:58.989Z,12.97
2023-02-08T13:55:23.625Z,12.50
2023-02-08T13:58:15.916Z,12.50
2023-02-08T14:01:14.133Z,12.13
2023-02-08T14:04:12.112Z,12.43
2023-02-08T14:07:04.505Z,12.07
2023-02-08T14:10:02.308Z,12.32
2023-02-08T14:12:56.774Z,12.35
2023-02-08T14:15:43.492Z,11.57
2023-02-08T14:18:30.222Z,11.45
2023-02-08T14:21:28.382Z,10.83
2023-02-08T14:24:39.456Z,11.23
2023-02-08T14:27:28.405Z,10.95
2023-02-08T14:30:17.008Z,10.82
2023-02-08T14:33:06.336Z,10.57
2023-02-08T14:35:56.506Z,11.40
2023-02-08T14:39:06.784Z,11.00
2023-02-08T14:41:55.194Z,10.80
2023-02-08T14:44:43.531Z,10.32
2023-02-08T14:47:31.151Z,10.77
2023-02-08T14:50:30.400Z,10.60
2023-02-08T14:53:39.593Z,10.05
2023-02-08T14:56:32.108Z,10.52
2023-02-08T14:59:21.095Z,10.07
2023-02-08T15:02:19.763Z,9.80
2023-02-08T15:05:09.861Z,9.40
2023-02-08T15:08:00.519Z,9.65
2023-02-08T15:10:47.229Z,9.90
2023-02-08T15:13:32.561Z,9.82
2023-02-08T15:16:18.233Z,11.02
2023-02-08T15:19:07.493Z,10.20
2023-02-08T15:21:52.823Z,10.00
2023-02-08T15:24:38.602Z,8.93
2023-02-08T15:27:27.382Z,9.95
2023-02-08T15:30:33.221Z,9.43
2023-02-08T15:33:18.860Z,8.90
2023-02-08T15:36:28.775Z,8.77
2023-02-08T15:39:27.705Z,8.50
2023-02-08T15:42:21.706Z,8.55
2023-02-08T15:45:24.266Z,8.60
2023-02-08T15:48:12.801Z,8.10
2023-02-08T15:50:59.879Z,7.95
2023-02-08T15:53:48.375Z,8.18
2023-02-08T15:56:40.786Z,8.43
2023-02-08T15:59:32.924Z,8.13
2023-02-08T16:02:30.942Z,8.47
2023-02-08T16:05:28.814Z,8.10
2023-02-08T16:08:20.771Z,8.90
2023-02-08T16:11:13.861Z,9.05
2023-02-08T16:14:01.034Z,8.70
2023-02-08T16:16:51.300Z,8.10
2023-02-08T16:19:36.836Z,8.75
2023-02-08T16:22:27.119Z,8.55
2023-02-08T16:25:36.434Z,8.23
2023-02-08T16:28:27.150Z,7.65
2023-02-08T16:31:12.647Z,8.13
2023-02-08T16:34:15.359Z,8.30
2023-02-08T16:37:03.158Z,8.52
2023-02-08T16:39:48.585Z,8.27
2023-02-08T16:42:42.800Z,8.15
2023-02-08T16:45:28.486Z,8.20
2023-02-08T16:48:36.180Z,7.97
2023-02-08T16:51:25.993Z,8.48
2023-02-08T16:54:18.494Z,7.90
2023-02-08T16:57:03.862Z,7.25
2023-02-08T16:59:49.188Z,8.17
2023-02-08T17:02:34.371Z,7.82
2023-02-08T17:05:22.814Z,7.90
2023-02-08T17:08:14.939Z,7.68
2023-02-08T17:11:00.461Z,7.32
2023-02-08T17:13:45.767Z,7.17
2023-02-08T17:16:32.768Z,7.00
2023-02-08T17:19:18.688Z,6.85
2023-02-08T17:22:04.151Z,7.00
2023-02-08T17:24:49.536Z,7.03
2023-02-08T17:27:34.779Z,7.00
2023-02-08T17:30:24.167Z,7.35
2023-02-08T17:33:18.121Z,8.00
2023-02-08T17:36:03.775Z,7.15
2023-02-08T17:38:49.155Z,7.10
2023-02-08T17:41:34.511Z,8.20
2023-02-08T17:44:20.673Z,7.53
2023-02-08T17:47:06.304Z,7.72
2023-02-08T17:49:51.535Z,7.70
2023-02-08T17:52:37.643Z,7.18
2023-02-08T17:55:24.243Z,7.33
2023-02-08T17:58:09.602Z,7.38
2023-02-08T18:00:56.055Z,7.93
2023-02-08T18:03:41.821Z,8.10
2023-02-08T18:06:27.217Z,7.78
2023-02-08T18:09:13.152Z,8.23
2023-02-08T18:11:58.491Z,9.00
2023-02-08T18:14:43.866Z,7.95
2023-02-08T18:17:29.749Z,8.43
2023-02-08T18:20:15.685Z,7.70
2023-02-08T18:23:01.518Z,7.83
2023-02-08T18:25:47.410Z,8.18
2023-02-08T18:28:32.765Z,9.80
2023-02-08T18:31:20.348Z,10.85
2023-02-08T18:34:06.223Z,11.75
2023-02-08T18:36:51.974Z,11.87
2023-02-08T18:39:38.695Z,11.73
2023-02-08T18:42:23.966Z,11.63
2023-02-08T18:45:09.990Z,11.05
2023-02-08T18:47:55.476Z,11.88
2023-02-08T18:50:40.765Z,11.03
2023-02-08T18:53:29.839Z,11.10
2023-02-08T18:56:15.371Z,12.25
2023-02-08T18:59:01.006Z,12.05
2023-02-08T19:01:47.110Z,12.00
2023-02-08T19:04:37.916Z,11.67
2023-02-08T19:07:23.243Z,10.80
2023-02-08T19:10:09.160Z,10.85
2023-02-08T19:12:54.492Z,10.93
2023-02-08T19:15:40.631Z,10.98
2023-02-08T19:18:26.002Z,11.37
2023-02-08T19:21:13.340Z,10.70
2023-02-08T19:24:00.645Z,10.85
2023-02-08T19:26:46.781Z,11.02
2023-02-08T19:29:33.506Z,11.38
2023-02-08T19:32:19.016Z,11.80
2023-02-08T19:35:04.476Z,10.65
2023-02-08T19:37:51.232Z,10.93
2023-02-08T19:40:36.731Z,11.30
2023-02-08T19:43:22.047Z,10.55
2023-02-08T19:46:12.822Z,11.67
2023-02-08T19:49:00.602Z,10.70
2023-02-08T19:51:46.421Z,11.38
2023-02-08T19:54:31.985Z,11.57
2023-02-08T19:57:17.265Z,11.20
2023-02-08T20:00:06.238Z,10.50
2023-02-08T20:02:57.458Z,11.10
2023-02-08T20:05:43.584Z,10.73
2023-02-08T20:08:29.446Z,10.68
2023-02-08T20:11:30.089Z,10.70
2023-02-08T20:14:15.057Z,11.20
2023-02-08T20:17:02.260Z,10.77
2023-02-08T20:19:47.652Z,10.45
2023-02-08T20:22:32.823Z,10.20
2023-02-08T20:25:18.586Z,10.35
2023-02-08T20:28:03.865Z,9.83
2023-02-08T20:30:49.159Z,10.02
2023-02-08T20:33:35.237Z,10.25
2023-02-08T20:36:23.134Z,10.57
2023-02-08T20:39:13.184Z,9.93
2023-02-08T20:41:58.575Z,9.60
2023-02-08T20:44:43.803Z,9.60
2023-02-08T20:47:31.847Z,9.88
2023-02-08T20:50:19.506Z,8.85
2023-02-08T20:53:05.376Z,10.23
2023-02-08T20:55:50.660Z,9.90
2023-02-08T20:58:39.464Z,9.35
2023-02-08T21:01:27.756Z,9.63
2023-02-08T21:04:13.277Z,9.30
2023-02-08T21:06:58.928Z,9.15
2023-02-08T21:09:45.066Z,9.40
2023-02-08T21:12:32.007Z,9.00
2023-02-08T21:15:19.146Z,9.48
2023-02-08T21:18:04.587Z,8.65
2023-02-08T21:20:50.324Z,9.07
2023-02-08T21:23:36.310Z,8.90
2023-02-08T21:26:21.806Z,8.50
2023-02-08T21:29:07.366Z,8.75
2023-02-08T21:31:54.156Z,8.27
2023-02-08T21:34:39.804Z,8.25
2023-02-08T21:37:25.016Z,8.67
2023-02-08T21:40:10.432Z,9.10
2023-02-08T21:42:55.573Z,8.57
2023-02-08T21:45:40.769Z,8.93
2023-02-08T21:48:25.958Z,9.05
2023-02-08T21:51:29.919Z,7.97
2023-02-08T21:54:37.021Z,7.90
2023-02-08T21:57:27.358Z,9.18
2023-02-08T22:00:13.283Z,8.60
2023-02-08T22:02:58.741Z,7.97
2023-02-08T22:05:46.856Z,8.27
2023-02-08T22:08:32.005Z,8.05
2023-02-08T22:11:17.312Z,8.30
2023-02-08T22:14:03.178Z,8.02
2023-02-08T22:16:49.315Z,8.32
2023-02-08T22:19:38.541Z,9.10
2023-02-08T22:22:24.025Z,8.00
2023-02-08T22:25:09.196Z,9.07
2023-02-08T22:27:54.854Z,8.98
2023-02-08T22:30:41.037Z,8.80
2023-02-08T22:33:27.502Z,8.43
2023-02-08T22:36:12.993Z,8.38
2023-02-08T22:38:58.314Z,8.50
2023-02-08T22:41:43.815Z,8.80
2023-02-08T22:44:29.186Z,8.55
2023-02-08T22:47:14.869Z,8.87
2023-02-08T22:50:01.197Z,9.57
2023-02-08T22:52:46.645Z,9.00
2023-02-08T22:55:32.297Z,8.85
2023-02-08T22:58:17.631Z,9.00
2023-02-08T23:01:03.447Z,8.53
2023-02-08T23:03:48.970Z,8.70
2023-02-08T23:06:35.545Z,8.32
2023-02-08T23:09:21.811Z,8.15
2023-02-08T23:12:07.387Z,8.05
2023-02-08T23:14:52.903Z,8.13
2023-02-08T23:17:38.086Z,8.88
2023-02-08T23:20:23.578Z,8.73
2023-02-08T23:23:09.078Z,8.70
2023-02-08T23:25:54.227Z,8.60
2023-02-08T23:28:39.552Z,8.50
2023-02-08T23:31:24.896Z,8.48
2023-02-08T23:34:12.743Z,8.93
2023-02-08T23:36:58.419Z,8.82
2023-02-08T23:39:43.664Z,8.65
2023-02-08T23:42:29.369Z,7.70
2023-02-08T23:45:15.083Z,8.15
2023-02-08T23:48:00.823Z,8.27
2023-02-08T23:50:47.078Z,8.23
2023-02-08T23:53:36.796Z,8.68
2023-02-08T23:56:28.114Z,8.00
2023-02-08T23:59:13.588Z,8.38
